createdAt,value
2023-05-10T00:25:30.460Z,12.53
2023-05-10T00:50:54.408Z,13.50
2023-05-10T01:10:51.314Z,13.07
2023-05-10T01:41:35.982Z,10.13
2023-05-10T02:12:09.713Z,11.50
2023-05-10T02:16:30.520Z,12.33
2023-05-10T02:46:57.108Z,9.67
2023-05-10T03:17:27.933Z,8.53
2023-05-10T04:08:36.019Z,10.10
2023-05-10T04:28:01.553Z,7.73
2023-05-10T04:48:20.689Z,8.37
2023-05-10T05:38:32.304Z,11.17
2023-05-10T06:03:53.159Z,5.20
2023-05-10T06:55:13.891Z,5.20
2023-05-10T07:25:16.562Z,5.37
2023-05-10T08:01:02.088Z,4.20
2023-05-10T08:36:33.480Z,3.07
2023-05-10T09:01:54.644Z,3.73
2023-05-10T09:26:38.256Z,4.30
2023-05-10T09:47:10.412Z,5.50
2023-05-10T10:07:31.556Z,2.93
2023-05-10T10:37:52.316Z,6.93
2023-05-10T11:08:46.760Z,3.47
2023-05-10T11:13:05.825Z,3.77
2023-05-10T11:38:31.585Z,3.47
2023-05-10T11:59:28.204Z,6.27
2023-05-10T12:59:59.649Z,3.60
2023-05-10T14:46:21.026Z,2.95
2023-05-10T15:11:46.808Z,2.97
2023-05-10T15:31:51.566Z,4.43
2023-05-10T16:02:31.388Z,5.03
2023-05-10T16:27:43.506Z,2.77
2023-05-10T16:53:05.791Z,3.40
2023-05-10T17:13:17.648Z,4.90
2023-05-10T17:43:52.129Z,6.97
2023-05-10T18:14:32.436Z,6.17
2023-05-10T18:18:54.075Z,4.23
2023-05-10T18:39:22.600Z,6.37
2023-05-10T19:04:59.715Z,5.60
2023-05-10T19:40:27.072Z,8.50
